sensor_id;sensor_type;location;lat;lon;timestamp;temperature;humidity
20977;DHT22;10647;51.016;3.720;2023-05-27T00:01:20;14.40;98.00
20977;DHT22;10647;51.016;3.720;2023-05-27T00:03:48;14.40;98.10
20977;DHT22;10647;51.016;3.720;2023-05-27T00:06:15;14.30;98.10
20977;DHT22;10647;51.016;3.720;2023-05-27T00:08:43;14.30;98.20
20977;DHT22;10647;51.016;3.720;2023-05-27T00:11:10;14.30;98.40
20977;DHT22;10647;51.016;3.720;2023-05-27T00:13:38;14.20;98.50
20977;DHT22;10647;51.016;3.720;2023-05-27T00:16:06;14.20;98.70
20977;DHT22;10647;51.016;3.720;2023-05-27T00:18:33;14.20;98.80
20977;DHT22;10647;51.016;3.720;2023-05-27T00:21:02;14.20;99.00
20977;DHT22;10647;51.016;3.720;2023-05-27T00:23:30;14.10;99.20
20977;DHT22;10647;51.016;3.720;2023-05-27T00:25:58;14.10;99.30
20977;DHT22;10647;51.016;3.720;2023-05-27T00:28:25;14.00;99.40
20977;DHT22;10647;51.016;3.720;2023-05-27T00:30:54;14.00;99.50
20977;DHT22;10647;51.016;3.720;2023-05-27T00:33:22;14.00;99.70
20977;DHT22;10647;51.016;3.720;2023-05-27T00:35:50;13.90;99.90
20977;DHT22;10647;51.016;3.720;2023-05-27T00:38:17;13.80;99.90
20977;DHT22;10647;51.016;3.720;2023-05-27T00:40:45;13.80;99.90
20977;DHT22;10647;51.016;3.720;2023-05-27T00:43:13;13.80;99.90
20977;DHT22;10647;51.016;3.720;2023-05-27T00:45:40;13.80;99.90
20977;DHT22;10647;51.016;3.720;2023-05-27T00:48:08;13.80;99.90
20977;DHT22;10647;51.016;3.720;2023-05-27T00:50:36;13.80;99.90
20977;DHT22;10647;51.016;3.720;2023-05-27T00:53:04;13.70;99.90
20977;DHT22;10647;51.016;3.720;2023-05-27T00:55:31;13.70;99.90
20977;DHT22;10647;51.016;3.720;2023-05-27T00:57:59;13.60;99.90
20977;DHT22;10647;51.016;3.720;2023-05-27T01:00:27;13.60;99.90
20977;DHT22;10647;51.016;3.720;2023-05-27T01:02:55;13.50;99.90
20977;DHT22;10647;51.016;3.720;2023-05-27T01:05:23;13.50;99.90
20977;DHT22;10647;51.016;3.720;2023-05-27T01:10:50;13.40;99.90
20977;DHT22;10647;51.016;3.720;2023-05-27T01:13:41;13.40;99.90
20977;DHT22;10647;51.016;3.720;2023-05-27T01:16:13;13.40;99.90
20977;DHT22;10647;51.016;3.720;2023-05-27T01:18:46;13.30;99.90
20977;DHT22;10647;51.016;3.720;2023-05-27T01:21:16;13.30;99.90
20977;DHT22;10647;51.016;3.720;2023-05-27T01:23:46;13.30;99.90
20977;DHT22;10647;51.016;3.720;2023-05-27T01:26:13;13.30;99.90
20977;DHT22;10647;51.016;3.720;2023-05-27T01:28:41;13.20;99.90
20977;DHT22;10647;51.016;3.720;2023-05-27T01:36:55;13.20;99.90
20977;DHT22;10647;51.016;3.720;2023-05-27T01:39:23;13.10;99.90
20977;DHT22;10647;51.016;3.720;2023-05-27T01:41:52;13.10;99.90
20977;DHT22;10647;51.016;3.720;2023-05-27T01:44:21;13.00;99.90
20977;DHT22;10647;51.016;3.720;2023-05-27T01:46:48;13.00;99.90
20977;DHT22;10647;51.016;3.720;2023-05-27T01:49:16;13.00;99.90
20977;DHT22;10647;51.016;3.720;2023-05-27T01:51:43;13.00;99.90
20977;DHT22;10647;51.016;3.720;2023-05-27T01:54:17;12.60;99.90
20977;DHT22;10647;51.016;3.720;2023-05-27T01:56:50;12.90;99.90
20977;DHT22;10647;51.016;3.720;2023-05-27T01:59:18;12.90;99.90
20977;DHT22;10647;51.016;3.720;2023-05-27T02:01:46;12.80;99.90
20977;DHT22;10647;51.016;3.720;2023-05-27T02:04:14;12.80;99.90
20977;DHT22;10647;51.016;3.720;2023-05-27T02:06:44;12.80;99.90
20977;DHT22;10647;51.016;3.720;2023-05-27T02:09:11;12.70;99.90
20977;DHT22;10647;51.016;3.720;2023-05-27T02:11:45;12.70;99.90
20977;DHT22;10647;51.016;3.720;2023-05-27T02:14:15;12.70;99.90
20977;DHT22;10647;51.016;3.720;2023-05-27T02:16:42;12.70;99.90
20977;DHT22;10647;51.016;3.720;2023-05-27T02:19:11;12.60;99.90
20977;DHT22;10647;51.016;3.720;2023-05-27T02:21:44;12.60;99.90
20977;DHT22;10647;51.016;3.720;2023-05-27T02:24:11;12.60;99.90
20977;DHT22;10647;51.016;3.720;2023-05-27T02:26:39;12.50;99.90
20977;DHT22;10647;51.016;3.720;2023-05-27T02:29:06;12.50;99.90
20977;DHT22;10647;51.016;3.720;2023-05-27T02:31:34;12.40;99.90
20977;DHT22;10647;51.016;3.720;2023-05-27T02:34:02;12.40;99.90
20977;DHT22;10647;51.016;3.720;2023-05-27T02:36:29;12.40;99.90
20977;DHT22;10647;51.016;3.720;2023-05-27T02:38:57;12.40;99.90
20977;DHT22;10647;51.016;3.720;2023-05-27T02:41:24;12.30;99.90
20977;DHT22;10647;51.016;3.720;2023-05-27T02:43:52;12.30;99.90
20977;DHT22;10647;51.016;3.720;2023-05-27T02:46:20;12.30;99.90
20977;DHT22;10647;51.016;3.720;2023-05-27T02:48:47;12.30;99.90
20977;DHT22;10647;51.016;3.720;2023-05-27T02:51:15;12.30;99.90
20977;DHT22;10647;51.016;3.720;2023-05-27T02:53:42;12.20;99.90
20977;DHT22;10647;51.016;3.720;2023-05-27T02:56:10;12.20;99.90
20977;DHT22;10647;51.016;3.720;2023-05-27T02:58:37;12.20;99.90
20977;DHT22;10647;51.016;3.720;2023-05-27T03:01:05;12.20;99.90
20977;DHT22;10647;51.016;3.720;2023-05-27T03:03:32;12.20;99.90
20977;DHT22;10647;51.016;3.720;2023-05-27T03:06:00;12.10;99.90
20977;DHT22;10647;51.016;3.720;2023-05-27T03:08:27;12.10;99.90
20977;DHT22;10647;51.016;3.720;2023-05-27T03:10:55;12.10;99.90
20977;DHT22;10647;51.016;3.720;2023-05-27T03:13:22;12.00;99.90
20977;DHT22;10647;51.016;3.720;2023-05-27T03:15:50;12.00;99.90
20977;DHT22;10647;51.016;3.720;2023-05-27T03:18:17;12.00;99.90
20977;DHT22;10647;51.016;3.720;2023-05-27T03:20:45;11.90;99.90
20977;DHT22;10647;51.016;3.720;2023-05-27T03:23:13;11.90;99.90
20977;DHT22;10647;51.016;3.720;2023-05-27T03:25:41;12.00;99.90
20977;DHT22;10647;51.016;3.720;2023-05-27T03:28:09;11.80;99.90
20977;DHT22;10647;51.016;3.720;2023-05-27T03:30:36;11.80;99.90
20977;DHT22;10647;51.016;3.720;2023-05-27T03:33:04;11.80;99.90
20977;DHT22;10647;51.016;3.720;2023-05-27T03:35:32;11.80;99.90
20977;DHT22;10647;51.016;3.720;2023-05-27T03:37:59;11.80;99.90
20977;DHT22;10647;51.016;3.720;2023-05-27T03:40:27;11.80;99.90
20977;DHT22;10647;51.016;3.720;2023-05-27T03:43:14;11.80;99.90
20977;DHT22;10647;51.016;3.720;2023-05-27T03:45:42;11.80;99.90
20977;DHT22;10647;51.016;3.720;2023-05-27T03:48:10;11.80;99.90
20977;DHT22;10647;51.016;3.720;2023-05-27T03:50:37;11.70;99.90
20977;DHT22;10647;51.016;3.720;2023-05-27T03:53:05;11.70;99.90
20977;DHT22;10647;51.016;3.720;2023-05-27T03:55:32;11.70;99.90
20977;DHT22;10647;51.016;3.720;2023-05-27T03:58:00;11.70;99.90
20977;DHT22;10647;51.016;3.720;2023-05-27T04:00:29;11.70;99.90
20977;DHT22;10647;51.016;3.720;2023-05-27T04:02:57;11.70;99.90
20977;DHT22;10647;51.016;3.720;2023-05-27T04:05:24;11.70;99.90
20977;DHT22;10647;51.016;3.720;2023-05-27T04:07:53;11.70;99.90
20977;DHT22;10647;51.016;3.720;2023-05-27T04:10:21;11.70;99.90
20977;DHT22;10647;51.016;3.720;2023-05-27T04:12:49;11.80;99.90
20977;DHT22;10647;51.016;3.720;2023-05-27T04:15:16;11.80;99.90
20977;DHT22;10647;51.016;3.720;2023-05-27T04:17:44;11.80;99.90
20977;DHT22;10647;51.016;3.720;2023-05-27T04:20:12;11.80;99.90
20977;DHT22;10647;51.016;3.720;2023-05-27T04:22:43;11.80;99.90
20977;DHT22;10647;51.016;3.720;2023-05-27T04:25:11;11.90;99.90
20977;DHT22;10647;51.016;3.720;2023-05-27T04:27:38;11.90;99.90
20977;DHT22;10647;51.016;3.720;2023-05-27T04:30:06;11.90;99.90
20977;DHT22;10647;51.016;3.720;2023-05-27T04:32:34;12.00;99.90
20977;DHT22;10647;51.016;3.720;2023-05-27T04:35:14;12.00;99.90
20977;DHT22;10647;51.016;3.720;2023-05-27T04:37:42;12.00;99.90
20977;DHT22;10647;51.016;3.720;2023-05-27T04:40:30;12.00;99.90
20977;DHT22;10647;51.016;3.720;2023-05-27T04:42:59;12.00;99.90
20977;DHT22;10647;51.016;3.720;2023-05-27T04:45:27;12.10;99.90
20977;DHT22;10647;51.016;3.720;2023-05-27T04:47:56;12.10;99.90
20977;DHT22;10647;51.016;3.720;2023-05-27T04:50:24;12.10;99.90
20977;DHT22;10647;51.016;3.720;2023-05-27T04:52:51;12.20;99.90
20977;DHT22;10647;51.016;3.720;2023-05-27T04:55:20;12.20;99.90
20977;DHT22;10647;51.016;3.720;2023-05-27T04:57:47;12.30;99.90
20977;DHT22;10647;51.016;3.720;2023-05-27T05:00:15;12.40;99.90
20977;DHT22;10647;51.016;3.720;2023-05-27T05:02:47;12.40;99.90
20977;DHT22;10647;51.016;3.720;2023-05-27T05:05:15;12.40;99.90
20977;DHT22;10647;51.016;3.720;2023-05-27T05:07:42;12.50;99.90
20977;DHT22;10647;51.016;3.720;2023-05-27T05:10:11;12.50;99.90
20977;DHT22;10647;51.016;3.720;2023-05-27T05:12:39;12.60;99.90
20977;DHT22;10647;51.016;3.720;2023-05-27T05:15:07;12.60;99.90
20977;DHT22;10647;51.016;3.720;2023-05-27T05:17:35;12.70;99.90
20977;DHT22;10647;51.016;3.720;2023-05-27T05:20:03;12.70;99.90
20977;DHT22;10647;51.016;3.720;2023-05-27T05:22:32;12.80;99.90
20977;DHT22;10647;51.016;3.720;2023-05-27T05:25:00;12.90;99.90
20977;DHT22;10647;51.016;3.720;2023-05-27T05:27:27;13.00;99.90
20977;DHT22;10647;51.016;3.720;2023-05-27T05:29:55;13.00;99.90
20977;DHT22;10647;51.016;3.720;2023-05-27T05:32:22;13.10;99.90
20977;DHT22;10647;51.016;3.720;2023-05-27T05:34:50;13.20;99.90
20977;DHT22;10647;51.016;3.720;2023-05-27T05:37:17;13.30;99.90
20977;DHT22;10647;51.016;3.720;2023-05-27T05:39:45;13.40;99.90
20977;DHT22;10647;51.016;3.720;2023-05-27T05:42:12;13.40;99.90
20977;DHT22;10647;51.016;3.720;2023-05-27T05:44:40;13.40;99.90
20977;DHT22;10647;51.016;3.720;2023-05-27T05:47:07;13.40;99.90
20977;DHT22;10647;51.016;3.720;2023-05-27T05:49:35;13.50;99.90
20977;DHT22;10647;51.016;3.720;2023-05-27T05:52:03;13.50;99.90
20977;DHT22;10647;51.016;3.720;2023-05-27T05:54:30;13.60;99.90
20977;DHT22;10647;51.016;3.720;2023-05-27T05:56:58;13.60;99.90
20977;DHT22;10647;51.016;3.720;2023-05-27T05:59:26;13.70;99.90
20977;DHT22;10647;51.016;3.720;2023-05-27T06:01:53;13.70;99.90
20977;DHT22;10647;51.016;3.720;2023-05-27T06:04:21;13.80;99.90
20977;DHT22;10647;51.016;3.720;2023-05-27T06:06:49;13.90;99.90
20977;DHT22;10647;51.016;3.720;2023-05-27T06:09:17;13.90;99.90
20977;DHT22;10647;51.016;3.720;2023-05-27T06:11:44;13.90;99.90
20977;DHT22;10647;51.016;3.720;2023-05-27T06:14:12;14.00;99.90
20977;DHT22;10647;51.016;3.720;2023-05-27T06:16:39;14.00;99.90
20977;DHT22;10647;51.016;3.720;2023-05-27T06:19:07;14.10;99.90
20977;DHT22;10647;51.016;3.720;2023-05-27T06:21:34;14.10;99.90
20977;DHT22;10647;51.016;3.720;2023-05-27T06:24:03;14.20;99.90
20977;DHT22;10647;51.016;3.720;2023-05-27T06:26:31;14.20;99.90
20977;DHT22;10647;51.016;3.720;2023-05-27T06:28:58;14.30;99.90
20977;DHT22;10647;51.016;3.720;2023-05-27T06:31:26;14.50;99.90
20977;DHT22;10647;51.016;3.720;2023-05-27T06:33:53;14.50;99.90
20977;DHT22;10647;51.016;3.720;2023-05-27T06:36:21;14.60;99.90
20977;DHT22;10647;51.016;3.720;2023-05-27T06:38:48;14.70;99.90
20977;DHT22;10647;51.016;3.720;2023-05-27T06:41:16;14.90;99.90
20977;DHT22;10647;51.016;3.720;2023-05-27T06:43:43;14.90;99.90
20977;DHT22;10647;51.016;3.720;2023-05-27T06:46:11;14.80;99.90
20977;DHT22;10647;51.016;3.720;2023-05-27T06:48:39;14.90;99.90
20977;DHT22;10647;51.016;3.720;2023-05-27T06:51:06;15.00;99.90
20977;DHT22;10647;51.016;3.720;2023-05-27T06:53:34;15.20;99.90
20977;DHT22;10647;51.016;3.720;2023-05-27T06:56:02;15.30;99.90
20977;DHT22;10647;51.016;3.720;2023-05-27T06:58:29;15.40;99.90
20977;DHT22;10647;51.016;3.720;2023-05-27T07:00:57;15.50;99.90
20977;DHT22;10647;51.016;3.720;2023-05-27T07:03:25;15.60;99.90
20977;DHT22;10647;51.016;3.720;2023-05-27T07:05:53;15.70;99.90
20977;DHT22;10647;51.016;3.720;2023-05-27T07:08:21;15.70;99.90
20977;DHT22;10647;51.016;3.720;2023-05-27T07:10:48;15.80;99.90
20977;DHT22;10647;51.016;3.720;2023-05-27T07:13:16;15.90;99.90
20977;DHT22;10647;51.016;3.720;2023-05-27T07:15:45;15.90;99.90
20977;DHT22;10647;51.016;3.720;2023-05-27T07:18:19;16.00;99.90
20977;DHT22;10647;51.016;3.720;2023-05-27T07:20:47;16.00;99.90
20977;DHT22;10647;51.016;3.720;2023-05-27T07:23:14;16.20;99.90
20977;DHT22;10647;51.016;3.720;2023-05-27T07:25:42;16.30;99.90
20977;DHT22;10647;51.016;3.720;2023-05-27T07:28:10;16.30;99.90
20977;DHT22;10647;51.016;3.720;2023-05-27T07:30:37;16.40;99.90
20977;DHT22;10647;51.016;3.720;2023-05-27T07:33:11;16.50;99.90
20977;DHT22;10647;51.016;3.720;2023-05-27T07:35:38;16.70;99.90
20977;DHT22;10647;51.016;3.720;2023-05-27T07:38:12;16.80;99.90
20977;DHT22;10647;51.016;3.720;2023-05-27T07:40:46;16.90;99.90
20977;DHT22;10647;51.016;3.720;2023-05-27T07:43:19;17.00;99.90
20977;DHT22;10647;51.016;3.720;2023-05-27T07:45:47;17.10;99.90
20977;DHT22;10647;51.016;3.720;2023-05-27T07:48:15;17.20;99.90
20977;DHT22;10647;51.016;3.720;2023-05-27T07:50:42;17.20;99.90
20977;DHT22;10647;51.016;3.720;2023-05-27T07:53:10;17.30;99.90
20977;DHT22;10647;51.016;3.720;2023-05-27T07:55:37;17.40;99.90
20977;DHT22;10647;51.016;3.720;2023-05-27T07:58:05;17.50;99.90
20977;DHT22;10647;51.016;3.720;2023-05-27T08:00:33;17.60;99.90
20977;DHT22;10647;51.016;3.720;2023-05-27T08:03:01;17.60;99.90
20977;DHT22;10647;51.016;3.720;2023-05-27T08:05:28;17.60;99.90
20977;DHT22;10647;51.016;3.720;2023-05-27T08:07:56;17.70;99.90
20977;DHT22;10647;51.016;3.720;2023-05-27T08:10:24;17.70;99.90
20977;DHT22;10647;51.016;3.720;2023-05-27T08:12:52;17.80;99.90
20977;DHT22;10647;51.016;3.720;2023-05-27T08:15:19;17.80;99.90
20977;DHT22;10647;51.016;3.720;2023-05-27T08:17:47;17.90;99.90
20977;DHT22;10647;51.016;3.720;2023-05-27T08:20:15;18.00;99.90
20977;DHT22;10647;51.016;3.720;2023-05-27T08:22:42;18.10;99.90
20977;DHT22;10647;51.016;3.720;2023-05-27T08:25:12;18.10;99.90
20977;DHT22;10647;51.016;3.720;2023-05-27T08:27:55;18.10;99.90
20977;DHT22;10647;51.016;3.720;2023-05-27T08:30:28;18.10;99.90
20977;DHT22;10647;51.016;3.720;2023-05-27T08:32:56;18.20;99.90
20977;DHT22;10647;51.016;3.720;2023-05-27T08:35:25;18.20;99.90
20977;DHT22;10647;51.016;3.720;2023-05-27T08:37:54;18.30;99.90
20977;DHT22;10647;51.016;3.720;2023-05-27T08:40:21;18.30;99.90
20977;DHT22;10647;51.016;3.720;2023-05-27T08:42:49;18.40;99.90
20977;DHT22;10647;51.016;3.720;2023-05-27T08:45:16;18.50;99.90
20977;DHT22;10647;51.016;3.720;2023-05-27T08:47:44;18.60;99.80
20977;DHT22;10647;51.016;3.720;2023-05-27T08:50:13;18.70;99.80
20977;DHT22;10647;51.016;3.720;2023-05-27T08:52:48;18.80;99.60
20977;DHT22;10647;51.016;3.720;2023-05-27T08:55:18;19.00;99.10
20977;DHT22;10647;51.016;3.720;2023-05-27T08:57:50;19.10;99.00
20977;DHT22;10647;51.016;3.720;2023-05-27T09:00:18;19.10;98.50
20977;DHT22;10647;51.016;3.720;2023-05-27T09:02:46;19.10;98.40
20977;DHT22;10647;51.016;3.720;2023-05-27T09:05:15;19.10;98.30
20977;DHT22;10647;51.016;3.720;2023-05-27T09:07:44;19.20;98.40
20977;DHT22;10647;51.016;3.720;2023-05-27T09:10:12;19.30;98.20
20977;DHT22;10647;51.016;3.720;2023-05-27T09:12:44;19.40;98.00
20977;DHT22;10647;51.016;3.720;2023-05-27T09:15:13;19.60;97.90
20977;DHT22;10647;51.016;3.720;2023-05-27T09:17:41;19.70;97.60
20977;DHT22;10647;51.016;3.720;2023-05-27T09:20:09;19.80;97.50
20977;DHT22;10647;51.016;3.720;2023-05-27T09:22:39;19.90;97.30
20977;DHT22;10647;51.016;3.720;2023-05-27T09:25:08;20.00;97.10
20977;DHT22;10647;51.016;3.720;2023-05-27T09:27:36;20.10;96.80
20977;DHT22;10647;51.016;3.720;2023-05-27T09:30:07;20.10;96.70
20977;DHT22;10647;51.016;3.720;2023-05-27T09:32:35;20.20;96.80
20977;DHT22;10647;51.016;3.720;2023-05-27T09:35:05;20.30;96.60
20977;DHT22;10647;51.016;3.720;2023-05-27T09:37:34;20.30;95.90
20977;DHT22;10647;51.016;3.720;2023-05-27T09:40:10;20.20;95.50
20977;DHT22;10647;51.016;3.720;2023-05-27T09:42:45;20.40;95.70
20977;DHT22;10647;51.016;3.720;2023-05-27T09:45:18;20.30;95.20
20977;DHT22;10647;51.016;3.720;2023-05-27T09:47:53;20.40;95.10
20977;DHT22;10647;51.016;3.720;2023-05-27T09:50:22;20.50;95.00
20977;DHT22;10647;51.016;3.720;2023-05-27T09:52:49;20.70;94.90
20977;DHT22;10647;51.016;3.720;2023-05-27T09:55:17;20.70;94.70
20977;DHT22;10647;51.016;3.720;2023-05-27T09:57:45;20.90;94.80
20977;DHT22;10647;51.016;3.720;2023-05-27T10:00:13;21.00;94.30
20977;DHT22;10647;51.016;3.720;2023-05-27T10:02:48;21.10;94.10
20977;DHT22;10647;51.016;3.720;2023-05-27T10:05:13;21.20;93.70
20977;DHT22;10647;51.016;3.720;2023-05-27T10:07:43;21.30;93.40
20977;DHT22;10647;51.016;3.720;2023-05-27T10:10:14;21.50;92.90
20977;DHT22;10647;51.016;3.720;2023-05-27T10:12:47;21.50;93.10
20977;DHT22;10647;51.016;3.720;2023-05-27T10:17:57;21.60;92.50
20977;DHT22;10647;51.016;3.720;2023-05-27T10:20:33;21.60;92.50
20977;DHT22;10647;51.016;3.720;2023-05-27T10:26:30;21.80;91.50
20977;DHT22;10647;51.016;3.720;2023-05-27T10:28:30;21.80;91.30
20977;DHT22;10647;51.016;3.720;2023-05-27T10:31:07;22.00;91.30
20977;DHT22;10647;51.016;3.720;2023-05-27T10:33:57;22.10;91.00
20977;DHT22;10647;51.016;3.720;2023-05-27T10:36:15;22.20;91.00
20977;DHT22;10647;51.016;3.720;2023-05-27T10:38:40;22.30;90.30
20977;DHT22;10647;51.016;3.720;2023-05-27T10:41:09;22.40;90.40
20977;DHT22;10647;51.016;3.720;2023-05-27T10:43:37;22.50;90.30
20977;DHT22;10647;51.016;3.720;2023-05-27T10:46:12;22.60;90.40
20977;DHT22;10647;51.016;3.720;2023-05-27T10:48:40;22.60;90.30
20977;DHT22;10647;51.016;3.720;2023-05-27T10:51:07;22.70;89.50
20977;DHT22;10647;51.016;3.720;2023-05-27T10:53:36;22.70;89.50
20977;DHT22;10647;51.016;3.720;2023-05-27T10:56:04;22.90;90.10
20977;DHT22;10647;51.016;3.720;2023-05-27T10:58:38;23.10;88.40
20977;DHT22;10647;51.016;3.720;2023-05-27T11:01:14;23.10;87.30
20977;DHT22;10647;51.016;3.720;2023-05-27T11:03:44;23.20;86.60
20977;DHT22;10647;51.016;3.720;2023-05-27T11:06:14;23.20;86.50
20977;DHT22;10647;51.016;3.720;2023-05-27T11:08:43;23.30;86.10
20977;DHT22;10647;51.016;3.720;2023-05-27T11:11:12;23.30;85.70
20977;DHT22;10647;51.016;3.720;2023-05-27T11:13:42;23.30;85.40
20977;DHT22;10647;51.016;3.720;2023-05-27T11:16:11;23.50;86.10
20977;DHT22;10647;51.016;3.720;2023-05-27T11:18:46;23.60;85.70
20977;DHT22;10647;51.016;3.720;2023-05-27T11:21:15;23.80;84.90
20977;DHT22;10647;51.016;3.720;2023-05-27T11:23:47;23.90;83.60
20977;DHT22;10647;51.016;3.720;2023-05-27T11:26:22;23.80;82.90
20977;DHT22;10647;51.016;3.720;2023-05-27T11:28:57;23.90;83.00
20977;DHT22;10647;51.016;3.720;2023-05-27T11:31:29;24.10;83.40
20977;DHT22;10647;51.016;3.720;2023-05-27T11:33:57;24.20;82.40
20977;DHT22;10647;51.016;3.720;2023-05-27T11:36:28;24.20;81.60
20977;DHT22;10647;51.016;3.720;2023-05-27T11:38:59;24.30;81.20
20977;DHT22;10647;51.016;3.720;2023-05-27T11:41:29;24.40;80.10
20977;DHT22;10647;51.016;3.720;2023-05-27T11:44:03;24.40;80.50
20977;DHT22;10647;51.016;3.720;2023-05-27T11:46:37;24.60;80.60
20977;DHT22;10647;51.016;3.720;2023-05-27T11:49:07;24.60;79.70
20977;DHT22;10647;51.016;3.720;2023-05-27T11:51:36;24.70;78.30
20977;DHT22;10647;51.016;3.720;2023-05-27T11:54:04;24.80;78.40
20977;DHT22;10647;51.016;3.720;2023-05-27T11:56:31;24.90;78.40
20977;DHT22;10647;51.016;3.720;2023-05-27T11:58:59;25.00;77.80
20977;DHT22;10647;51.016;3.720;2023-05-27T12:01:27;25.10;77.10
20977;DHT22;10647;51.016;3.720;2023-05-27T12:03:54;25.30;76.70
20977;DHT22;10647;51.016;3.720;2023-05-27T12:06:22;25.20;75.90
20977;DHT22;10647;51.016;3.720;2023-05-27T12:08:49;25.30;75.90
20977;DHT22;10647;51.016;3.720;2023-05-27T12:11:19;25.40;75.30
20977;DHT22;10647;51.016;3.720;2023-05-27T12:13:46;25.40;73.70
20977;DHT22;10647;51.016;3.720;2023-05-27T12:16:20;25.60;73.30
20977;DHT22;10647;51.016;3.720;2023-05-27T12:18:47;25.70;71.20
20977;DHT22;10647;51.016;3.720;2023-05-27T12:21:19;25.90;70.10
20977;DHT22;10647;51.016;3.720;2023-05-27T12:23:47;26.00;70.40
20977;DHT22;10647;51.016;3.720;2023-05-27T12:26:15;26.00;70.60
20977;DHT22;10647;51.016;3.720;2023-05-27T12:29:03;26.10;70.50
20977;DHT22;10647;51.016;3.720;2023-05-27T12:31:30;26.20;70.40
20977;DHT22;10647;51.016;3.720;2023-05-27T12:33:58;26.40;69.10
20977;DHT22;10647;51.016;3.720;2023-05-27T12:36:25;26.40;65.60
20977;DHT22;10647;51.016;3.720;2023-05-27T12:38:53;26.30;65.50
20977;DHT22;10647;51.016;3.720;2023-05-27T12:41:20;26.50;65.80
20977;DHT22;10647;51.016;3.720;2023-05-27T12:43:48;26.70;66.30
20977;DHT22;10647;51.016;3.720;2023-05-27T12:46:15;26.80;67.00
20977;DHT22;10647;51.016;3.720;2023-05-27T12:48:49;26.90;66.50
20977;DHT22;10647;51.016;3.720;2023-05-27T12:51:20;26.80;66.70
20977;DHT22;10647;51.016;3.720;2023-05-27T12:53:47;27.00;67.00
20977;DHT22;10647;51.016;3.720;2023-05-27T12:56:15;27.20;64.60
20977;DHT22;10647;51.016;3.720;2023-05-27T12:58:42;27.60;61.70
20977;DHT22;10647;51.016;3.720;2023-05-27T13:01:10;29.70;59.10
20977;DHT22;10647;51.016;3.720;2023-05-27T13:03:37;34.00;53.30
20977;DHT22;10647;51.016;3.720;2023-05-27T13:06:05;37.30;50.20
20977;DHT22;10647;51.016;3.720;2023-05-27T13:08:32;39.80;46.20
20977;DHT22;10647;51.016;3.720;2023-05-27T13:11:00;41.40;42.90
20977;DHT22;10647;51.016;3.720;2023-05-27T13:13:27;42.60;40.30
20977;DHT22;10647;51.016;3.720;2023-05-27T13:16:01;44.00;38.20
20977;DHT22;10647;51.016;3.720;2023-05-27T13:18:30;44.40;36.60
20977;DHT22;10647;51.016;3.720;2023-05-27T13:20:59;45.50;35.50
20977;DHT22;10647;51.016;3.720;2023-05-27T13:23:28;45.90;32.20
20977;DHT22;10647;51.016;3.720;2023-05-27T13:25:56;46.20;31.60
20977;DHT22;10647;51.016;3.720;2023-05-27T13:28:26;46.80;31.10
20977;DHT22;10647;51.016;3.720;2023-05-27T13:30:54;47.50;30.70
20977;DHT22;10647;51.016;3.720;2023-05-27T13:33:22;47.40;30.50
20977;DHT22;10647;51.016;3.720;2023-05-27T13:35:50;47.10;30.50
20977;DHT22;10647;51.016;3.720;2023-05-27T13:38:37;46.90;29.40
20977;DHT22;10647;51.016;3.720;2023-05-27T13:41:05;46.40;29.10
20977;DHT22;10647;51.016;3.720;2023-05-27T13:43:44;46.70;29.10
20977;DHT22;10647;51.016;3.720;2023-05-27T13:46:11;47.40;28.60
20977;DHT22;10647;51.016;3.720;2023-05-27T13:48:45;48.30;28.50
20977;DHT22;10647;51.016;3.720;2023-05-27T13:51:12;48.30;28.20
20977;DHT22;10647;51.016;3.720;2023-05-27T13:53:40;48.50;27.90
20977;DHT22;10647;51.016;3.720;2023-05-27T13:56:08;49.10;27.40
20977;DHT22;10647;51.016;3.720;2023-05-27T13:58:35;48.70;27.20
20977;DHT22;10647;51.016;3.720;2023-05-27T14:01:03;48.40;27.80
20977;DHT22;10647;51.016;3.720;2023-05-27T14:03:30;48.70;27.50
20977;DHT22;10647;51.016;3.720;2023-05-27T14:05:58;48.90;27.40
20977;DHT22;10647;51.016;3.720;2023-05-27T14:08:25;49.00;27.30
20977;DHT22;10647;51.016;3.720;2023-05-27T14:10:53;49.30;26.80
20977;DHT22;10647;51.016;3.720;2023-05-27T14:13:20;49.60;26.90
20977;DHT22;10647;51.016;3.720;2023-05-27T14:15:48;49.50;27.30
20977;DHT22;10647;51.016;3.720;2023-05-27T14:18:15;49.20;27.40
20977;DHT22;10647;51.016;3.720;2023-05-27T14:20:43;48.90;27.40
20977;DHT22;10647;51.016;3.720;2023-05-27T14:23:11;49.00;27.50
20977;DHT22;10647;51.016;3.720;2023-05-27T14:25:40;48.60;27.10
20977;DHT22;10647;51.016;3.720;2023-05-27T14:28:08;48.60;27.10
20977;DHT22;10647;51.016;3.720;2023-05-27T14:30:35;48.90;26.80
20977;DHT22;10647;51.016;3.720;2023-05-27T14:33:04;49.20;26.50
20977;DHT22;10647;51.016;3.720;2023-05-27T14:35:34;49.40;26.70
20977;DHT22;10647;51.016;3.720;2023-05-27T14:38:03;49.50;26.70
20977;DHT22;10647;51.016;3.720;2023-05-27T14:40:31;49.10;26.00
20977;DHT22;10647;51.016;3.720;2023-05-27T14:42:58;48.90;26.00
20977;DHT22;10647;51.016;3.720;2023-05-27T14:45:33;49.30;25.60
20977;DHT22;10647;51.016;3.720;2023-05-27T14:48:00;49.80;25.70
20977;DHT22;10647;51.016;3.720;2023-05-27T14:50:28;49.90;25.80
20977;DHT22;10647;51.016;3.720;2023-05-27T14:52:58;49.70;25.60
20977;DHT22;10647;51.016;3.720;2023-05-27T14:55:26;49.50;24.60
20977;DHT22;10647;51.016;3.720;2023-05-27T14:57:53;49.40;25.50
20977;DHT22;10647;51.016;3.720;2023-05-27T15:00:21;49.40;25.20
20977;DHT22;10647;51.016;3.720;2023-05-27T15:02:48;49.70;25.20
20977;DHT22;10647;51.016;3.720;2023-05-27T15:05:16;49.70;25.60
20977;DHT22;10647;51.016;3.720;2023-05-27T15:07:43;49.60;25.70
20977;DHT22;10647;51.016;3.720;2023-05-27T15:10:11;49.20;25.90
20977;DHT22;10647;51.016;3.720;2023-05-27T15:12:40;49.10;25.90
20977;DHT22;10647;51.016;3.720;2023-05-27T15:15:10;49.50;25.40
20977;DHT22;10647;51.016;3.720;2023-05-27T15:17:44;49.80;24.90
20977;DHT22;10647;51.016;3.720;2023-05-27T15:20:12;49.70;24.70
20977;DHT22;10647;51.016;3.720;2023-05-27T15:22:41;49.20;25.10
20977;DHT22;10647;51.016;3.720;2023-05-27T15:25:10;49.30;24.90
20977;DHT22;10647;51.016;3.720;2023-05-27T15:27:43;49.40;24.90
20977;DHT22;10647;51.016;3.720;2023-05-27T15:30:15;49.70;24.90
20977;DHT22;10647;51.016;3.720;2023-05-27T15:32:45;49.50;24.70
20977;DHT22;10647;51.016;3.720;2023-05-27T15:35:16;48.70;25.50
20977;DHT22;10647;51.016;3.720;2023-05-27T15:37:46;47.40;26.30
20977;DHT22;10647;51.016;3.720;2023-05-27T15:40:13;44.40;27.30
20977;DHT22;10647;51.016;3.720;2023-05-27T15:42:42;41.30;29.10
20977;DHT22;10647;51.016;3.720;2023-05-27T15:45:15;39.40;30.10
20977;DHT22;10647;51.016;3.720;2023-05-27T15:47:43;37.90;32.00
20977;DHT22;10647;51.016;3.720;2023-05-27T15:50:16;36.70;32.70
20977;DHT22;10647;51.016;3.720;2023-05-27T15:52:44;35.80;33.80
20977;DHT22;10647;51.016;3.720;2023-05-27T15:55:11;35.20;35.00